Currently 57°F in De Luz, California, USA
57°F
58°F / 49°F
2 mph SE
0.03"
Saturday, December 14, 2019 4:20 PM PST

De Luz, California Weather Summary
Last 36 Hours

Temperature Winds Hourly Humidity Dewpoint
Time Report Norm Report Norm Max Gusts Precip. Rpt. Norm Rpt. Norm Pressure
1Sat 04:20 PM  56.6°F  59°F  2 mph SE  1 mph  6 mph  0.00"  94%  59%  55°F  44°F  28.63"
Sat 04:00 PM  56.9°F  60°F  1 mph S  1 mph  5 mph  0.00"  94%  57%  55°F  44°F  28.63"
Sat 03:00 PM  58.1°F  63°F  calm  1 mph  4 mph  0.00"  96%  52%  57°F  44°F  28.63"
2Sat 02:40 PM  58.3°F  63°F  calm  1 mph  4 mph  ----  98%  51%  58°F  44°F  28.64"
Sat 02:00 PM  56.2°F  64°F  1 mph S  1 mph  7 mph  0.00"  98%  49%  56°F  44°F  28.62"
Sat 01:00 PM  55.4°F  64°F  1 mph SE  1 mph  5 mph  0.00"  98%  48%  55°F  43°F  28.63"
Sat 12:00 PM  54.5°F  63°F  calm  1 mph  none  0.00"  98%  49%  54°F  43°F  28.66"
Sat 11:00 AM  54.5°F  61°F  calm  1 mph  3 mph  0.00"  98%  52%  54°F  43°F  28.68"
Sat 10:00 AM  54.1°F  59°F  calm  calm  none  0.00"  98%  56%  54°F  42°F  28.70"
Sat 09:00 AM  53.5°F  55°F  calm  calm  none  0.00"  98%  61%  53°F  42°F  28.70"
Sat 08:00 AM  53.3°F  52°F  calm  calm  2 mph  0.01"  98%  65%  53°F  40°F  28.68"
Sat 07:00 AM  52.9°F  50°F  calm  calm  none  0.00"  97%  66%  52°F  39°F  28.68"
Sat 06:00 AM  52.5°F  50°F  calm  calm  none  0.01"  97%  66%  52°F  39°F  28.70"
Sat 05:00 AM  52.5°F  50°F  calm  calm  none  0.00"  97%  67%  52°F  39°F  28.69"
Sat 04:00 AM  52.5°F  51°F  calm  calm  none  0.00"  97%  66%  52°F  39°F  28.69"
Sat 03:00 AM  51.9°F  51°F  calm  calm  none  0.01"  97%  66%  51°F  40°F  28.69"
Sat 02:00 AM  50.8°F  51°F  calm  calm  none  0.00"  96%  67%  50°F  40°F  28.70"
Sat 01:00 AM  50.8°F  51°F  calm  calm  none  0.00"  96%  67%  50°F  40°F  28.71"
3Sat 12:00 AM  49.2°F  52°F  calm  calm  2 mph  0.00"  95%  68%  48°F  41°F  28.72"
Fri 11:00 PM  49.6°F  52°F  calm  calm  none  0.00"  94%  68%  48°F  41°F  28.72"
Fri 10:00 PM  50.8°F  52°F  calm  calm  none  0.00"  93%  69%  49°F  42°F  28.73"
Fri 09:00 PM  52.8°F  53°F  calm  calm  none  0.00"  93%  69%  51°F  42°F  28.74"
Fri 08:00 PM  53.8°F  53°F  calm  calm  none  0.00"  91%  70%  51°F  43°F  28.74"
Fri 07:00 PM  55.3°F  53°F  calm  calm  none  0.00"  89%  69%  52°F  43°F  28.72"
Fri 06:00 PM  57.3°F  55°F  calm  calm  3 mph  0.00"  87%  68%  53°F  44°F  28.74"
Fri 05:00 PM  59.6°F  57°F  2 mph S  calm  7 mph  0.00"  82%  64%  54°F  44°F  28.75"
Fri 04:00 PM  63.9°F  61°F  calm  1 mph  4 mph  0.00"  73%  56%  55°F  44°F  28.75"
Fri 03:00 PM  66.4°F  63°F  2 mph S  1 mph  6 mph  0.00"  69%  52%  56°F  44°F  28.74"
Fri 02:00 PM  69.1°F  64°F  2 mph S  1 mph  8 mph  0.00"  62%  48%  55°F  44°F  28.74"
Fri 01:00 PM  70.9°F  64°F  3 mph S  1 mph  8 mph  0.00"  52%  47%  52°F  43°F  28.75"
Fri 12:00 PM  72.0°F  63°F  calm  1 mph  none  0.00"  46%  49%  49°F  43°F  28.77"
Fri 11:00 AM  69.4°F  62°F  calm  1 mph  2 mph  0.00"  50%  51%  49°F  43°F  28.81"
Fri 10:00 AM  68.6°F  59°F  calm  calm  none  0.00"  53%  55%  50°F  42°F  28.84"
Fri 09:00 AM  61.3°F  56°F  calm  calm  none  0.00"  64%  60%  49°F  42°F  28.85"
Fri 08:00 AM  57.6°F  52°F  calm  calm  none  0.00"  69%  64%  47°F  40°F  28.85"
Fri 07:00 AM  52.6°F  50°F  calm  calm  none  0.00"  79%  66%  46°F  39°F  28.81"
Fri 06:00 AM  52.3°F  50°F  calm  calm  none  0.00"  78%  66%  45°F  39°F  28.82"
Fri 05:00 AM  53.3°F  51°F  calm  calm  none  0.00"  78%  66%  46°F  39°F  28.84"

  1. Current weather data. No green row appears if the current weather data is also the high or low for the current day.
  2. High temperature for the current day.
  3. Low temperature for the current day.

The De Luz, California weather pages are a service of WeatherCurrents. De Luz is located west of the Temecula Valley and north of Fallbrook, on the Santa Rosa Plateau, in southwestern Riverside County, California.
Copyright ©2019  WeatherCurrents. All rights reserved. - Submit questions and comments - Privacy Policy

This page automatically refreshes every 10 minutes.